KFAR/FAR METAR and TAF weather

Enter ICAO airport designator
Station Type Date Time Source
KFAR METAR 2019/10/23 20:53 UTC NOAA

KFAR 232053Z 30011KT 10SM OVC025 04/M01 A3003 RMK AO2 SLP179 T00441006 53013


Station Type Date Time Source
KFAR Decoded METAR 2019/10/23 20:53 UTC NOAA

HECTOR INTERNATIONAL AIRPORT , ND, United States (KFAR) 46-56N 096-49W 277M
Oct 23, 2019 - 04:53 PM EDT / 2019.10.23 2053 UTC
Wind: from the WNW (300 degrees) at 13 MPH (11 KT):0
Visibility: 10 mile(s):0
Sky conditions: overcast
Temperature: 39.9 F (4.4 C)
Dew Point: 30.9 F (-0.6 C)
Relative Humidity: 69%
Pressure (altimeter): 30.03 in. Hg (1016 hPa)
Pressure tendency: 0.04 inches (1.3 hPa) higher than three hours ago
ob: KFAR 232053Z 30011KT 10SM OVC025 04/M01 A3003 RMK AO2 SLP179 T00441006 53013
cycle: 21

Station Type Date Time Source
KFAR TAF 2019/10/23 21:40 UTC NOAA

TAF
AMD KFAR 232038Z 2321/2418 34010G18KT P6SM OVC025
FM240000 33009KT P6SM BKN050
FM240600 32007KT P6SM SKC

Example: see airport list